Great Falls International Airport Great Falls US
ICAO: KGTF
IATA: GTF
Category: Medium
Scheduled Services: Yes

Elevation: 3680 ft
TransAlt. 18000 ft.

Airport Communications:
APP/DEP:128.6
ATIS:126.6
GND/CLNC DEL:121.7
ANG OPS MAINT:28.89
RDO:122.6
TWR:118.7
UNICOM:122.95

KGTF Zoom In..

If you have problems with the map follow the link
https://www.worldairports.se/pages/airport.php?
ICAO=KGTF

Runways:

(A) RW 03 length 10502 ft width 150 ft
ILS 111.30 / hdg 29

(B) RW 07 length 4294 ft width 75 ft
---- / hdg 74

(C) RW 16 length 5722 ft width 150 ft
---- / hdg 164

(D) RW 21 length 10502 ft width 150 ft
---- / hdg 209

(E) RW 25 length 4294 ft width 75 ft
---- / hdg 254

(F) RW 34 length 5722 ft width 150 ft
---- / hdg 344

Location; KGTF
Day. 16 / Time. 11.53 Zulu
* Altimeter: 29.89
* Temperature: 07° c. 44.6°f.
* Wind from: 280° Speed 08 kn.
Dewpoint: 01° c.
Visibility: 10 Statute Miles.
Clouds: Overcast 7000 ft.

KGTF 161153Z 28008KT 10SM OVC070 07/01 A2989 RMK AO2 SLP134 T00720006 10083 20067 53011


Wind From 280°
Speed 08 kn.

 
 
jpsmedia.com for Web Design worldairports.se 2018   terms of use